Detall de PIREP

Printer-friendly versionPDF version

[2013/09/14 19:07:00]
Flight IATA:CT1001
Pilot Number:026
Company ICAO:CAT
Aircraft Type:F50/A
PAX:50
Aircraft Registration:PAOB
Departing Airport: LICG
Destination Airport: LICD
Alternate Airport:LMML
Online: VATSIM
Route:ROBET M740 LESMI
Flight Level:F110
No Slew and time accel
No pause
Crash detect
Detect pilot in Cockpit between each 30 and 45 minutes
19:07 Zero fuel Weight: 38801 Lbs, Fuel Weight: 3271 Lbs
19:07 VATSIM:LICG 141755Z /////KT CAVOK 23/21 Q1019
19:07 VATSIM:LICD 141750Z 08002KT CAVOK 24/19 Q1019
19:07 VOICE CATALONIAN / MEDITERRANEAN ODYSSEY LEG4
19:10 Parking Brakes off
19:18 Take-off
19:18 Take off Weight: 41979 Lbs
19:18 Wind: 057º @ 002 Knots Heading: 207º
19:18 POS N36º 48´ 23´´ E011º 57´ 44´´
19:18 Gear Up: 111 Knots
19:18 Flaps:3 at 111 Knots
19:18 Flaps:2 at 113 Knots
19:19 Flaps:1 at 133 Knots
19:19 Flaps:0 at 139 Knots
19:25 TOC
19:25 Fuel Weight: 2839 Lb
19:33 Wind:110º@006 Knots Heading: 168º Ground Speed: 250 Knots Altitude 11269 ft
19:34 TOD
19:34 Fuel Weight: 2553 Lb
19:45 Flaps:1 at 135 Knots
19:45 Gear Down: 128 Knots
19:45 Flaps:2 at 128 Knots
19:46 Flaps:3 at 110 Knots
19:47 Flaps:4 at 103 Knots
19:48 Wind:119º@003 Knots Heading: 259º Ground Speed: 105 Knots Altitude 413 ft
19:48 Flaps:5 at 96 Knots
19:48 TouchDown:Rate -392 ft/min Speed: 86 Knots
19:48 VATSIM:LICD 141850Z 12003KT CAVOK 24/19 Q1020
19:48 Land
19:48 Wind:119º@003 Knots
19:48 Heading: 259º
19:48 Flight Duration: 00:30
19:48 Landing Weight: 41166 Lbs
19:48 POS N35º 29´ 48´´ E012º 36´ 58´´
19:51 Parking brakes on
19:51 Block to Block Duration: 00:41
19:51 Final Fuel: 2343 Lbls
19:51 Spent Fuel: 928 Lbls
19:51 Flight Length: 104 NM
19:51 TOD Land Length: 44 NM

Exportar CSV

Powered by Drupal - Modified by Danger4k